Terminal Aerodrome Forecast
Issued by NWS Columbia, SC

Home | Current Version | Previous Version | Text Only | Print | Product List | Glossary On
Versions: 1 2 3 4 5 6 7 8 9 10 11 12 13 14 15 16 17 18 19 20 21 22 23 24 25 26 27 28 29 30 31 32 33 34 35 36 37 38 39 40 41 42
000
FTUS42 KCAE 170327 AAA
TAFAGS
TAF AMD
KAGS 170327Z 1703/1724 VRB03KT P6SM SCT020 OVC060
     FM171000 VRB04KT P6SM VCSH OVC030
     FM171100 28005KT 5SM -RASN SCT007 OVC025
     FM171700 29010G16KT P6SM OVC025
     FM172100 31012KT P6SM BKN050=

USA.gov is the U.S. government's official web portal to all federal, state and local government web resources and services.